createdAt,value
2022-11-29T00:01:01.638Z,30.75
2022-11-29T00:03:29.133Z,28.20
2022-11-29T00:05:56.014Z,31.77
2022-11-29T00:08:24.055Z,31.23
2022-11-29T00:10:50.867Z,34.35
2022-11-29T00:13:17.874Z,39.65
2022-11-29T00:15:44.483Z,30.48
2022-11-29T00:18:11.017Z,34.72
2022-11-29T00:20:39.116Z,33.80
2022-11-29T00:23:05.788Z,37.15
2022-11-29T00:25:32.353Z,37.75
2022-11-29T00:27:58.889Z,36.63
2022-11-29T00:30:25.700Z,34.25
2022-11-29T00:32:52.282Z,29.23
2022-11-29T00:35:18.884Z,32.33
2022-11-29T00:37:45.448Z,37.10
2022-11-29T00:40:12.364Z,36.42
2022-11-29T00:42:39.039Z,35.97
2022-11-29T00:45:06.006Z,32.33
2022-11-29T00:47:32.605Z,36.65
2022-11-29T00:49:59.144Z,33.83
2022-11-29T00:52:25.694Z,34.53
2022-11-29T00:54:52.242Z,20.70
2022-11-29T00:57:18.805Z,32.92
2022-11-29T00:59:45.374Z,29.65
2022-11-29T01:02:12.001Z,36.35
2022-11-29T01:04:38.598Z,38.75
2022-11-29T01:07:05.178Z,36.67
2022-11-29T01:09:31.779Z,31.67
2022-11-29T01:11:58.332Z,33.20
2022-11-29T01:14:24.897Z,28.10
2022-11-29T01:16:51.518Z,21.42
2022-11-29T01:19:18.146Z,23.95
2022-11-29T01:21:44.695Z,37.75
2022-11-29T01:24:11.309Z,26.88
2022-11-29T01:26:38.154Z,33.90
2022-11-29T01:29:04.730Z,26.67
2022-11-29T01:31:36.014Z,28.60
2022-11-29T01:34:04.594Z,24.67
2022-11-29T01:36:31.477Z,40.25
2022-11-29T01:39:03.646Z,32.90
2022-11-29T01:41:32.822Z,38.85
2022-11-29T01:44:07.109Z,35.78
2022-11-29T01:46:37.417Z,31.05
2022-11-29T01:51:37.630Z,28.40
2022-11-29T01:54:05.334Z,37.00
2022-11-29T01:56:34.194Z,32.13
2022-11-29T01:59:07.939Z,43.83
2022-11-29T02:01:36.735Z,32.75
2022-11-29T02:04:05.411Z,37.05
2022-11-29T02:06:32.157Z,31.60
2022-11-29T02:08:58.749Z,34.83
2022-11-29T02:30:35.941Z,48.05
2022-11-29T02:41:58.283Z,52.33
2022-11-29T02:47:22.466Z,46.28
2022-11-29T02:50:19.245Z,49.92
2022-11-29T02:56:02.422Z,36.65
2022-11-29T02:58:38.305Z,54.10
2022-11-29T03:03:53.298Z,101.90
2022-11-29T03:09:12.030Z,40.47
2022-11-29T03:14:31.078Z,36.00
2022-11-29T03:17:25.345Z,30.10
2022-11-29T03:25:33.040Z,30.58
2022-11-29T03:28:06.438Z,35.03
2022-11-29T03:30:36.821Z,30.08
2022-11-29T03:36:02.037Z,26.70
2022-11-29T03:38:47.477Z,25.05
2022-11-29T03:41:40.344Z,29.20
2022-11-29T03:44:28.167Z,29.00
2022-11-29T03:47:03.469Z,23.83
2022-11-29T03:49:39.149Z,23.10
2022-11-29T03:52:35.644Z,24.77
2022-11-29T03:57:55.801Z,25.27
2022-11-29T04:06:14.992Z,35.67
2022-11-29T04:23:20.819Z,29.45
2022-11-29T04:29:03.972Z,30.85
2022-11-29T04:32:10.370Z,54.15
2022-11-29T04:35:10.606Z,36.05
2022-11-29T04:49:07.450Z,34.30
2022-11-29T04:54:37.699Z,32.50
2022-11-29T04:57:25.522Z,32.42
2022-11-29T05:00:06.167Z,29.30
2022-11-29T05:11:14.604Z,45.42
2022-11-29T05:22:44.455Z,27.90
2022-11-29T05:25:41.413Z,33.13
2022-11-29T05:33:42.694Z,30.65
2022-11-29T05:39:21.490Z,34.28
2022-11-29T05:44:51.077Z,26.77
2022-11-29T05:47:31.066Z,29.08
2022-11-29T05:50:22.894Z,23.20
2022-11-29T05:53:15.066Z,25.10
2022-11-29T05:58:49.493Z,64.35
2022-11-29T06:01:24.380Z,36.47
2022-11-29T06:04:15.193Z,37.70
2022-11-29T06:06:55.322Z,32.97
2022-11-29T06:12:19.543Z,35.80
2022-11-29T06:29:01.705Z,39.08
2022-11-29T06:31:34.333Z,33.15
2022-11-29T06:37:04.790Z,38.75
2022-11-29T06:39:31.629Z,37.20
2022-11-29T06:41:58.175Z,30.27
2022-11-29T06:44:25.020Z,32.85
2022-11-29T06:47:13.647Z,34.00
2022-11-29T06:50:13.449Z,27.88
2022-11-29T07:06:36.446Z,31.25
2022-11-29T07:09:16.489Z,33.58
2022-11-29T07:11:43.458Z,30.95
2022-11-29T07:14:10.901Z,31.33
2022-11-29T07:16:54.464Z,32.47
2022-11-29T07:25:02.119Z,34.33
2022-11-29T07:35:45.620Z,33.53
2022-11-29T07:38:51.939Z,35.38
2022-11-29T07:41:29.645Z,43.25
2022-11-29T07:44:13.041Z,37.60
2022-11-29T07:49:06.252Z,40.72
2022-11-29T07:51:32.894Z,33.05
2022-11-29T07:54:00.088Z,36.88
2022-11-29T07:56:26.661Z,32.30
2022-11-29T07:58:53.267Z,30.55
2022-11-29T08:01:19.979Z,33.83
2022-11-29T08:03:46.731Z,32.83
2022-11-29T08:06:13.260Z,25.85
2022-11-29T08:08:43.895Z,38.33
2022-11-29T08:11:12.710Z,28.20
2022-11-29T08:13:39.462Z,32.63
2022-11-29T08:16:06.283Z,25.27
2022-11-29T08:18:32.873Z,31.30
2022-11-29T08:20:59.454Z,36.30
2022-11-29T08:23:26.063Z,32.22
2022-11-29T08:25:59.793Z,32.25
2022-11-29T08:28:26.371Z,33.25
2022-11-29T08:31:01.392Z,31.75
2022-11-29T08:33:28.453Z,34.97
2022-11-29T08:35:55.098Z,32.75
2022-11-29T08:38:21.875Z,33.83
2022-11-29T08:40:48.454Z,34.97
2022-11-29T08:43:14.993Z,27.70
2022-11-29T08:45:41.560Z,25.45
2022-11-29T08:48:08.111Z,35.17
2022-11-29T08:50:34.713Z,30.63
2022-11-29T08:53:21.201Z,28.30
2022-11-29T08:55:47.757Z,24.70
2022-11-29T08:58:16.113Z,27.25
2022-11-29T09:00:47.583Z,31.58
2022-11-29T09:03:34.113Z,30.65
2022-11-29T09:06:11.977Z,30.50
2022-11-29T09:08:39.553Z,33.30
2022-11-29T09:11:09.180Z,34.65
2022-11-29T09:13:35.793Z,34.45
2022-11-29T09:16:07.318Z,30.25
2022-11-29T09:18:33.901Z,29.45
2022-11-29T09:21:00.495Z,32.25
2022-11-29T09:23:27.084Z,32.10
2022-11-29T09:25:54.544Z,25.65
2022-11-29T09:28:21.133Z,33.45
2022-11-29T09:30:47.724Z,33.85
2022-11-29T09:33:14.351Z,41.20
2022-11-29T09:35:40.881Z,27.92
2022-11-29T09:38:07.454Z,24.33
2022-11-29T09:40:40.280Z,34.08
2022-11-29T09:45:59.615Z,29.75
2022-11-29T09:54:05.620Z,25.73
2022-11-29T09:56:51.864Z,29.05
2022-11-29T09:59:29.127Z,28.60
2022-11-29T10:02:05.987Z,28.30
2022-11-29T10:04:40.397Z,21.33
2022-11-29T10:07:17.957Z,28.83
2022-11-29T10:09:48.985Z,26.58
2022-11-29T10:12:45.679Z,25.13
2022-11-29T10:15:21.162Z,25.27
2022-11-29T10:17:54.642Z,29.55
2022-11-29T10:20:27.952Z,24.20
2022-11-29T10:23:06.871Z,26.70
2022-11-29T10:25:46.358Z,29.27
2022-11-29T10:28:17.770Z,24.35
2022-11-29T10:30:44.933Z,21.23
2022-11-29T10:33:33.285Z,25.25
2022-11-29T10:36:04.509Z,21.23
2022-11-29T10:38:32.090Z,24.30
2022-11-29T10:41:07.616Z,26.15
2022-11-29T10:43:34.415Z,22.05
2022-11-29T10:46:02.536Z,28.45
2022-11-29T10:48:33.435Z,21.73
2022-11-29T10:51:01.416Z,30.15
2022-11-29T10:53:35.768Z,25.75
2022-11-29T10:56:29.613Z,21.20
2022-11-29T10:59:05.159Z,20.70
2022-11-29T11:01:33.940Z,31.98
2022-11-29T11:04:04.327Z,30.05
2022-11-29T11:11:58.490Z,24.55
2022-11-29T11:14:28.186Z,22.50
2022-11-29T11:16:55.060Z,25.15
2022-11-29T11:22:03.891Z,24.80
2022-11-29T11:24:36.045Z,31.45
2022-11-29T11:27:03.094Z,30.35
2022-11-29T11:29:45.472Z,27.10
2022-11-29T11:32:18.058Z,18.95
2022-11-29T11:34:55.079Z,24.65
2022-11-29T11:37:26.014Z,23.80
2022-11-29T11:39:56.094Z,19.23
2022-11-29T11:47:53.864Z,27.40
2022-11-29T11:50:44.162Z,20.83
2022-11-29T11:53:36.010Z,23.98
2022-11-29T11:56:14.154Z,22.92
2022-11-29T12:01:40.018Z,24.65
2022-11-29T12:04:15.090Z,18.45
2022-11-29T12:07:12.168Z,22.88
2022-11-29T12:09:45.006Z,22.67
2022-11-29T12:17:53.033Z,22.60
2022-11-29T12:26:06.371Z,19.08
2022-11-29T12:28:38.072Z,25.58
2022-11-29T12:37:13.208Z,28.80
2022-11-29T12:50:31.401Z,22.73
2022-11-29T12:53:27.104Z,30.33
2022-11-29T12:56:33.938Z,25.52
2022-11-29T12:59:28.870Z,28.95
2022-11-29T13:02:30.082Z,25.17
2022-11-29T13:22:21.259Z,24.83
2022-11-29T13:24:53.514Z,22.33
2022-11-29T13:27:27.330Z,28.48
2022-11-29T13:29:53.999Z,25.33
2022-11-29T13:32:48.071Z,27.80
2022-11-29T13:37:59.050Z,22.35
2022-11-29T13:43:19.193Z,37.33
2022-11-29T13:48:57.389Z,22.77
2022-11-29T13:54:03.610Z,19.83
2022-11-29T13:56:42.973Z,18.85
2022-11-29T13:59:17.630Z,20.88
2022-11-29T14:01:47.129Z,22.25
2022-11-29T14:07:15.511Z,16.08
2022-11-29T14:09:49.076Z,13.30
2022-11-29T14:17:56.341Z,25.63
2022-11-29T14:31:49.085Z,24.85
2022-11-29T14:34:21.003Z,26.85
2022-11-29T14:36:59.237Z,20.73
2022-11-29T14:39:34.088Z,19.23
2022-11-29T14:42:14.407Z,20.27
2022-11-29T14:45:01.079Z,22.60
2022-11-29T14:47:33.048Z,29.95
2022-11-29T14:50:04.153Z,19.58
2022-11-29T14:52:35.813Z,20.80
2022-11-29T14:55:09.476Z,17.80
2022-11-29T14:58:06.157Z,21.52
2022-11-29T15:03:13.276Z,38.40
2022-11-29T15:05:45.042Z,23.35
2022-11-29T15:08:20.429Z,21.20
2022-11-29T15:10:52.540Z,21.40
2022-11-29T15:13:27.083Z,18.80
2022-11-29T15:16:27.147Z,21.52
2022-11-29T15:24:26.744Z,17.90
2022-11-29T15:29:33.935Z,40.72
2022-11-29T15:32:05.414Z,22.90
2022-11-29T15:34:39.861Z,25.05
2022-11-29T15:37:06.684Z,33.63
2022-11-29T15:39:37.355Z,26.48
2022-11-29T15:42:11.865Z,25.38
2022-11-29T15:44:45.632Z,23.48
2022-11-29T15:49:54.099Z,19.60
2022-11-29T15:52:31.660Z,18.23
2022-11-29T15:55:03.422Z,17.48
2022-11-29T16:00:15.529Z,16.70
2022-11-29T16:02:50.865Z,14.23
2022-11-29T16:05:23.541Z,15.18
2022-11-29T16:07:53.758Z,16.02
2022-11-29T16:10:24.973Z,16.27
2022-11-29T16:15:32.989Z,19.73
2022-11-29T16:18:22.221Z,12.57
2022-11-29T16:21:06.087Z,10.48
2022-11-29T16:23:35.587Z,10.88
2022-11-29T16:28:45.880Z,9.80
2022-11-29T16:31:18.270Z,16.67
2022-11-29T16:33:47.522Z,14.63
2022-11-29T16:36:19.323Z,10.45
2022-11-29T16:38:49.146Z,14.02
2022-11-29T16:41:23.153Z,12.63
2022-11-29T16:43:55.432Z,16.63
2022-11-29T16:49:01.028Z,25.60
2022-11-29T16:51:43.825Z,14.38
2022-11-29T16:54:21.392Z,16.75
2022-11-29T16:56:49.644Z,13.40
2022-11-29T16:59:25.689Z,11.48
2022-11-29T17:01:55.583Z,13.98
2022-11-29T17:04:23.387Z,13.25
2022-11-29T17:06:51.658Z,10.32
2022-11-29T17:09:25.090Z,11.63
2022-11-29T17:11:51.995Z,9.07
2022-11-29T17:14:18.552Z,8.05
2022-11-29T17:16:47.616Z,9.98
2022-11-29T17:19:14.272Z,7.60
2022-11-29T17:21:40.957Z,7.28
2022-11-29T17:24:11.838Z,8.27
2022-11-29T17:26:38.473Z,8.02
2022-11-29T17:29:05.191Z,7.82
2022-11-29T17:31:31.895Z,6.80
2022-11-29T17:34:00.882Z,10.27
2022-11-29T17:36:27.910Z,11.60
2022-11-29T17:38:54.618Z,12.20
2022-11-29T17:41:24.550Z,8.98
2022-11-29T17:43:52.185Z,11.52
2022-11-29T17:48:55.621Z,8.23
2022-11-29T17:54:11.129Z,8.10
2022-11-29T17:56:38.133Z,8.43
2022-11-29T17:59:05.243Z,10.98
2022-11-29T18:01:34.079Z,11.57
2022-11-29T18:04:02.300Z,10.68
2022-11-29T18:06:36.120Z,10.77
2022-11-29T18:09:07.658Z,10.88
2022-11-29T18:11:46.336Z,8.18
2022-11-29T18:14:16.119Z,11.93
2022-11-29T18:16:44.981Z,14.15
2022-11-29T18:19:14.762Z,16.48
2022-11-29T18:21:41.396Z,11.48
2022-11-29T18:24:08.402Z,12.48
2022-11-29T18:26:36.350Z,12.05
2022-11-29T18:29:03.720Z,14.63
2022-11-29T18:31:32.781Z,15.13
2022-11-29T18:34:01.200Z,14.50
2022-11-29T18:36:30.787Z,11.60
2022-11-29T18:39:00.588Z,11.82
2022-11-29T18:41:29.518Z,12.40
2022-11-29T18:43:58.937Z,13.85
2022-11-29T18:46:26.379Z,14.73
2022-11-29T18:48:53.005Z,11.18
2022-11-29T18:51:20.541Z,14.52
2022-11-29T18:53:47.150Z,19.33
2022-11-29T18:56:16.095Z,11.35
2022-11-29T18:58:44.172Z,9.85
2022-11-29T19:01:19.486Z,12.07
2022-11-29T19:03:50.552Z,15.30
2022-11-29T19:06:20.441Z,12.48
2022-11-29T19:08:47.892Z,15.60
2022-11-29T19:11:16.905Z,15.57
2022-11-29T19:13:44.153Z,11.60
2022-11-29T19:16:14.549Z,13.35
2022-11-29T19:21:11.760Z,12.88
2022-11-29T19:23:38.704Z,13.70
2022-11-29T19:26:09.370Z,10.75
2022-11-29T19:28:39.908Z,9.05
2022-11-29T19:31:07.431Z,10.88
2022-11-29T19:33:35.239Z,10.10
2022-11-29T19:36:20.414Z,12.98
2022-11-29T19:38:51.746Z,14.48
2022-11-29T19:41:24.294Z,13.07
2022-11-29T19:43:51.511Z,13.73
2022-11-29T19:46:20.746Z,11.02
2022-11-29T19:48:47.857Z,15.07
2022-11-29T19:51:17.537Z,12.05
2022-11-29T19:53:45.491Z,10.38
2022-11-29T19:56:15.005Z,11.32
2022-11-29T19:58:42.916Z,11.23
2022-11-29T20:03:46.502Z,11.35
2022-11-29T20:06:13.717Z,9.60
2022-11-29T20:08:41.080Z,13.20
2022-11-29T20:11:13.551Z,12.00
2022-11-29T20:13:42.628Z,11.23
2022-11-29T20:16:12.217Z,15.23
2022-11-29T20:18:43.562Z,12.38
2022-11-29T20:21:16.052Z,12.00
2022-11-29T20:23:43.386Z,13.77
2022-11-29T20:26:14.367Z,13.88
2022-11-29T20:28:41.546Z,17.60
2022-11-29T20:31:10.239Z,12.32
2022-11-29T20:33:38.758Z,15.98
2022-11-29T20:38:50.512Z,15.90
2022-11-29T20:41:27.812Z,17.38
2022-11-29T20:43:58.209Z,21.08
2022-11-29T20:48:53.581Z,11.98
2022-11-29T20:51:26.054Z,18.25
2022-11-29T20:53:52.602Z,14.02
2022-11-29T20:56:19.241Z,12.13
2022-11-29T20:58:45.782Z,14.63
2022-11-29T21:01:12.501Z,15.38
2022-11-29T21:03:39.222Z,15.68
2022-11-29T21:06:06.490Z,18.40
2022-11-29T21:08:33.952Z,20.33
2022-11-29T21:11:04.630Z,15.13
2022-11-29T21:13:32.021Z,16.83
2022-11-29T21:15:59.530Z,14.93
2022-11-29T21:18:28.300Z,17.75
2022-11-29T21:21:35.050Z,19.60
2022-11-29T21:24:30.888Z,20.17
2022-11-29T21:26:58.450Z,15.75
2022-11-29T21:29:25.439Z,20.02
2022-11-29T21:31:54.036Z,20.25
2022-11-29T21:34:21.530Z,18.13
2022-11-29T21:36:55.582Z,19.02
2022-11-29T21:39:24.338Z,18.83
2022-11-29T21:41:50.870Z,19.60
2022-11-29T21:44:17.464Z,14.45
2022-11-29T21:46:44.087Z,19.25
2022-11-29T21:49:10.699Z,19.05
2022-11-29T21:51:37.284Z,16.77
2022-11-29T21:54:03.967Z,15.00
2022-11-29T21:56:30.564Z,17.83
2022-11-29T21:58:57.243Z,14.27
2022-11-29T22:01:23.963Z,13.18
2022-11-29T22:03:53.338Z,12.38
2022-11-29T22:06:21.262Z,12.65
2022-11-29T22:08:48.673Z,13.75
2022-11-29T22:11:17.286Z,16.48
2022-11-29T22:14:04.416Z,16.15
2022-11-29T22:16:31.152Z,13.52
2022-11-29T22:18:57.788Z,18.95
2022-11-29T22:21:24.535Z,15.18
2022-11-29T22:23:52.592Z,15.10
2022-11-29T22:26:19.153Z,13.82
2022-11-29T22:28:45.713Z,17.05
2022-11-29T22:31:12.909Z,18.23
2022-11-29T22:33:40.047Z,17.40
2022-11-29T22:36:09.913Z,17.48
2022-11-29T22:38:37.628Z,18.73
2022-11-29T22:41:13.574Z,14.10
2022-11-29T22:43:41.252Z,19.55
2022-11-29T22:48:47.077Z,14.80
2022-11-29T22:51:17.016Z,16.77
2022-11-29T22:53:49.127Z,17.77
2022-11-29T22:56:15.930Z,16.05
2022-11-29T22:58:42.597Z,21.00
2022-11-29T23:01:14.253Z,18.58
2022-11-29T23:03:43.421Z,23.15
2022-11-29T23:06:13.409Z,23.48
2022-11-29T23:08:41.458Z,17.70
2022-11-29T23:11:11.554Z,17.42
2022-11-29T23:13:40.793Z,19.15
2022-11-29T23:16:10.404Z,20.70
2022-11-29T23:18:38.462Z,14.27
2022-11-29T23:23:42.754Z,16.58
2022-11-29T23:26:17.073Z,16.15
2022-11-29T23:28:43.622Z,14.60
2022-11-29T23:31:10.179Z,20.48
2022-11-29T23:33:36.776Z,17.42
2022-11-29T23:36:05.813Z,19.02
2022-11-29T23:38:33.232Z,26.33
2022-11-29T23:40:59.957Z,21.08
2022-11-29T23:43:29.691Z,24.75
2022-11-29T23:45:56.644Z,21.17
2022-11-29T23:48:23.310Z,29.27
2022-11-29T23:50:49.974Z,21.17
2022-11-29T23:53:18.598Z,25.33
2022-11-29T23:55:47.927Z,20.17
2022-11-29T23:58:14.472Z,31.92
